Terminal Aerodrome Forecast
Issued by NWS Midland/Odessa, TX

Home | Current Version | Previous Version | Text Only | Print | Product List | Glossary On
Versions: 1 2 3 4 5 6 7 8 9 10 11 12 13 14 15 16 17
000
FTUS44 KMAF 231405 AAD
TAFMAF
TAF AMD
KMAF 231405Z 2314/2412 17018G28KT P6SM SCT015 SCT250
      TEMPO 2314/2316 OVC015
     FM231700 16027G37KT 6SM BLDU BKN250
     FM240100 24016G26KT P6SM BKN200=

USA.gov is the U.S. government's official web portal to all federal, state and local government web resources and services.